sensor_id;sensor_type;location;lat;lon;timestamp;P1;durP1;ratioP1;P2;durP2;ratioP2
47523;SDS011;33253;42.144;25.884;2024-01-30T00:01:57;12.47;;;6.77;;
47523;SDS011;33253;42.144;25.884;2024-01-30T00:04:22;10.17;;;6.00;;
47523;SDS011;33253;42.144;25.884;2024-01-30T00:06:48;9.93;;;5.63;;
47523;SDS011;33253;42.144;25.884;2024-01-30T00:09:13;12.33;;;5.83;;
47523;SDS011;33253;42.144;25.884;2024-01-30T00:11:39;10.27;;;6.03;;
47523;SDS011;33253;42.144;25.884;2024-01-30T00:14:05;10.23;;;6.37;;
47523;SDS011;33253;42.144;25.884;2024-01-30T00:16:30;10.60;;;5.80;;
47523;SDS011;33253;42.144;25.884;2024-01-30T00:18:56;8.40;;;4.97;;
47523;SDS011;33253;42.144;25.884;2024-01-30T00:21:21;9.70;;;5.10;;
47523;SDS011;33253;42.144;25.884;2024-01-30T00:23:47;11.77;;;6.13;;
47523;SDS011;33253;42.144;25.884;2024-01-30T00:26:13;8.90;;;5.00;;
47523;SDS011;33253;42.144;25.884;2024-01-30T00:28:40;8.93;;;5.33;;
47523;SDS011;33253;42.144;25.884;2024-01-30T00:31:06;9.37;;;4.90;;
47523;SDS011;33253;42.144;25.884;2024-01-30T00:33:32;9.00;;;4.17;;
47523;SDS011;33253;42.144;25.884;2024-01-30T00:35:58;8.33;;;4.43;;
47523;SDS011;33253;42.144;25.884;2024-01-30T00:38:23;8.33;;;4.33;;
47523;SDS011;33253;42.144;25.884;2024-01-30T00:40:49;9.93;;;5.07;;
47523;SDS011;33253;42.144;25.884;2024-01-30T00:43:15;8.53;;;5.10;;
47523;SDS011;33253;42.144;25.884;2024-01-30T00:45:41;10.10;;;5.30;;
47523;SDS011;33253;42.144;25.884;2024-01-30T00:48:06;8.73;;;4.70;;
47523;SDS011;33253;42.144;25.884;2024-01-30T00:50:32;9.23;;;4.73;;
47523;SDS011;33253;42.144;25.884;2024-01-30T00:52:57;9.20;;;5.37;;
47523;SDS011;33253;42.144;25.884;2024-01-30T00:55:23;10.00;;;4.97;;
47523;SDS011;33253;42.144;25.884;2024-01-30T00:57:48;11.97;;;5.60;;
47523;SDS011;33253;42.144;25.884;2024-01-30T01:00:14;10.10;;;5.10;;
47523;SDS011;33253;42.144;25.884;2024-01-30T01:02:42;9.50;;;5.10;;
47523;SDS011;33253;42.144;25.884;2024-01-30T01:05:08;10.37;;;5.47;;
47523;SDS011;33253;42.144;25.884;2024-01-30T01:07:34;10.23;;;5.53;;
47523;SDS011;33253;42.144;25.884;2024-01-30T01:09:59;9.20;;;5.13;;
47523;SDS011;33253;42.144;25.884;2024-01-30T01:12:25;10.90;;;5.10;;
47523;SDS011;33253;42.144;25.884;2024-01-30T01:14:52;8.83;;;4.87;;
47523;SDS011;33253;42.144;25.884;2024-01-30T01:17:17;10.20;;;4.97;;
47523;SDS011;33253;42.144;25.884;2024-01-30T01:19:43;9.00;;;4.90;;
47523;SDS011;33253;42.144;25.884;2024-01-30T01:22:09;8.37;;;5.07;;
47523;SDS011;33253;42.144;25.884;2024-01-30T01:24:35;8.63;;;4.57;;
47523;SDS011;33253;42.144;25.884;2024-01-30T01:27:01;8.67;;;4.70;;
47523;SDS011;33253;42.144;25.884;2024-01-30T01:29:27;9.00;;;4.73;;
47523;SDS011;33253;42.144;25.884;2024-01-30T01:31:57;9.83;;;3.97;;
47523;SDS011;33253;42.144;25.884;2024-01-30T01:34:23;6.55;;;3.60;;
47523;SDS011;33253;42.144;25.884;2024-01-30T01:36:49;10.80;;;5.10;;
47523;SDS011;33253;42.144;25.884;2024-01-30T01:39:15;9.03;;;4.60;;
47523;SDS011;33253;42.144;25.884;2024-01-30T01:41:41;8.30;;;4.47;;
47523;SDS011;33253;42.144;25.884;2024-01-30T01:44:07;11.17;;;4.97;;
47523;SDS011;33253;42.144;25.884;2024-01-30T01:46:33;7.77;;;4.10;;
47523;SDS011;33253;42.144;25.884;2024-01-30T01:49:00;9.20;;;4.43;;
47523;SDS011;33253;42.144;25.884;2024-01-30T01:51:28;8.57;;;4.83;;
47523;SDS011;33253;42.144;25.884;2024-01-30T01:53:56;8.77;;;3.87;;
47523;SDS011;33253;42.144;25.884;2024-01-30T01:56:23;9.53;;;5.00;;
47523;SDS011;33253;42.144;25.884;2024-01-30T01:58:49;9.60;;;5.23;;
47523;SDS011;33253;42.144;25.884;2024-01-30T02:01:16;10.77;;;5.03;;
47523;SDS011;33253;42.144;25.884;2024-01-30T02:03:44;9.48;;;4.85;;
47523;SDS011;33253;42.144;25.884;2024-01-30T02:06:10;10.23;;;5.10;;
47523;SDS011;33253;42.144;25.884;2024-01-30T02:08:37;10.57;;;6.23;;
47523;SDS011;33253;42.144;25.884;2024-01-30T02:11:02;10.10;;;5.40;;
47523;SDS011;33253;42.144;25.884;2024-01-30T02:13:28;11.40;;;6.07;;
47523;SDS011;33253;42.144;25.884;2024-01-30T02:15:54;9.67;;;5.07;;
47523;SDS011;33253;42.144;25.884;2024-01-30T02:18:19;10.93;;;5.50;;
47523;SDS011;33253;42.144;25.884;2024-01-30T02:20:48;9.73;;;5.10;;
47523;SDS011;33253;42.144;25.884;2024-01-30T02:23:15;11.07;;;5.50;;
47523;SDS011;33253;42.144;25.884;2024-01-30T02:25:42;10.60;;;5.70;;
47523;SDS011;33253;42.144;25.884;2024-01-30T02:28:13;15.10;;;7.13;;
47523;SDS011;33253;42.144;25.884;2024-01-30T02:30:40;12.13;;;6.20;;
47523;SDS011;33253;42.144;25.884;2024-01-30T02:33:07;10.50;;;5.93;;
47523;SDS011;33253;42.144;25.884;2024-01-30T02:35:33;10.40;;;5.73;;
47523;SDS011;33253;42.144;25.884;2024-01-30T02:37:59;11.67;;;6.27;;
47523;SDS011;33253;42.144;25.884;2024-01-30T02:40:24;13.97;;;6.17;;
47523;SDS011;33253;42.144;25.884;2024-01-30T02:42:50;11.23;;;5.93;;
47523;SDS011;33253;42.144;25.884;2024-01-30T02:45:15;11.60;;;6.80;;
47523;SDS011;33253;42.144;25.884;2024-01-30T02:47:41;12.30;;;6.60;;
47523;SDS011;33253;42.144;25.884;2024-01-30T02:50:07;11.37;;;6.40;;
47523;SDS011;33253;42.144;25.884;2024-01-30T02:52:32;12.73;;;6.87;;
47523;SDS011;33253;42.144;25.884;2024-01-30T02:54:58;11.63;;;6.17;;
47523;SDS011;33253;42.144;25.884;2024-01-30T02:57:24;14.77;;;7.77;;
47523;SDS011;33253;42.144;25.884;2024-01-30T02:59:49;11.13;;;6.10;;
47523;SDS011;33253;42.144;25.884;2024-01-30T03:02:15;10.87;;;6.83;;
47523;SDS011;33253;42.144;25.884;2024-01-30T03:04:40;10.23;;;5.33;;
47523;SDS011;33253;42.144;25.884;2024-01-30T03:07:07;11.80;;;5.93;;
47523;SDS011;33253;42.144;25.884;2024-01-30T03:09:33;12.63;;;6.73;;
47523;SDS011;33253;42.144;25.884;2024-01-30T03:11:58;13.77;;;6.70;;
47523;SDS011;33253;42.144;25.884;2024-01-30T03:14:24;13.67;;;6.10;;
47523;SDS011;33253;42.144;25.884;2024-01-30T03:16:49;11.87;;;6.33;;
47523;SDS011;33253;42.144;25.884;2024-01-30T03:19:15;11.93;;;6.00;;
47523;SDS011;33253;42.144;25.884;2024-01-30T03:21:40;10.03;;;5.90;;
47523;SDS011;33253;42.144;25.884;2024-01-30T03:24:06;9.93;;;5.53;;
47523;SDS011;33253;42.144;25.884;2024-01-30T03:26:33;13.40;;;6.50;;
47523;SDS011;33253;42.144;25.884;2024-01-30T03:28:58;13.07;;;6.67;;
47523;SDS011;33253;42.144;25.884;2024-01-30T03:31:24;12.40;;;6.43;;
47523;SDS011;33253;42.144;25.884;2024-01-30T03:33:49;13.07;;;6.43;;
47523;SDS011;33253;42.144;25.884;2024-01-30T03:36:15;11.17;;;5.90;;
47523;SDS011;33253;42.144;25.884;2024-01-30T03:38:41;12.57;;;6.37;;
47523;SDS011;33253;42.144;25.884;2024-01-30T03:41:09;14.33;;;6.60;;
47523;SDS011;33253;42.144;25.884;2024-01-30T03:43:37;13.57;;;6.30;;
47523;SDS011;33253;42.144;25.884;2024-01-30T03:46:02;12.73;;;6.30;;
47523;SDS011;33253;42.144;25.884;2024-01-30T03:48:29;11.00;;;6.47;;
47523;SDS011;33253;42.144;25.884;2024-01-30T03:50:55;12.80;;;6.27;;
47523;SDS011;33253;42.144;25.884;2024-01-30T03:53:21;13.97;;;7.00;;
47523;SDS011;33253;42.144;25.884;2024-01-30T03:55:47;14.37;;;6.60;;
47523;SDS011;33253;42.144;25.884;2024-01-30T03:58:13;10.70;;;6.30;;
47523;SDS011;33253;42.144;25.884;2024-01-30T04:00:38;10.70;;;6.00;;
47523;SDS011;33253;42.144;25.884;2024-01-30T04:03:04;9.70;;;5.80;;
47523;SDS011;33253;42.144;25.884;2024-01-30T04:05:30;13.20;;;6.13;;
47523;SDS011;33253;42.144;25.884;2024-01-30T04:07:55;13.37;;;6.87;;
47523;SDS011;33253;42.144;25.884;2024-01-30T04:10:21;14.07;;;7.73;;
47523;SDS011;33253;42.144;25.884;2024-01-30T04:12:46;12.43;;;6.47;;
47523;SDS011;33253;42.144;25.884;2024-01-30T04:15:13;12.67;;;6.87;;
47523;SDS011;33253;42.144;25.884;2024-01-30T04:17:39;12.30;;;6.97;;
47523;SDS011;33253;42.144;25.884;2024-01-30T04:20:05;12.27;;;6.90;;
47523;SDS011;33253;42.144;25.884;2024-01-30T04:22:31;15.23;;;6.47;;
47523;SDS011;33253;42.144;25.884;2024-01-30T04:24:56;10.37;;;5.90;;
47523;SDS011;33253;42.144;25.884;2024-01-30T04:27:22;10.23;;;5.83;;
47523;SDS011;33253;42.144;25.884;2024-01-30T04:29:47;10.60;;;5.43;;
47523;SDS011;33253;42.144;25.884;2024-01-30T04:32:13;11.87;;;6.23;;
47523;SDS011;33253;42.144;25.884;2024-01-30T04:34:39;11.03;;;6.13;;
47523;SDS011;33253;42.144;25.884;2024-01-30T04:37:05;12.77;;;5.83;;
47523;SDS011;33253;42.144;25.884;2024-01-30T04:39:32;9.33;;;5.20;;
47523;SDS011;33253;42.144;25.884;2024-01-30T04:41:58;13.30;;;6.57;;
47523;SDS011;33253;42.144;25.884;2024-01-30T04:44:24;11.87;;;6.00;;
47523;SDS011;33253;42.144;25.884;2024-01-30T04:46:50;13.67;;;6.53;;
47523;SDS011;33253;42.144;25.884;2024-01-30T04:49:15;13.03;;;6.77;;
47523;SDS011;33253;42.144;25.884;2024-01-30T04:51:41;12.97;;;6.60;;
47523;SDS011;33253;42.144;25.884;2024-01-30T04:54:07;11.43;;;6.37;;
47523;SDS011;33253;42.144;25.884;2024-01-30T04:56:33;11.87;;;6.33;;
47523;SDS011;33253;42.144;25.884;2024-01-30T04:58:59;13.03;;;5.83;;
47523;SDS011;33253;42.144;25.884;2024-01-30T05:01:25;10.77;;;6.10;;
47523;SDS011;33253;42.144;25.884;2024-01-30T05:03:50;10.63;;;6.07;;
47523;SDS011;33253;42.144;25.884;2024-01-30T05:06:25;12.20;;;6.27;;
47523;SDS011;33253;42.144;25.884;2024-01-30T05:08:51;10.70;;;6.37;;
47523;SDS011;33253;42.144;25.884;2024-01-30T05:11:17;13.33;;;7.03;;
47523;SDS011;33253;42.144;25.884;2024-01-30T05:13:42;13.43;;;6.90;;
47523;SDS011;33253;42.144;25.884;2024-01-30T05:16:08;15.23;;;6.97;;
47523;SDS011;33253;42.144;25.884;2024-01-30T05:18:33;11.23;;;6.50;;
47523;SDS011;33253;42.144;25.884;2024-01-30T05:20:59;11.87;;;6.53;;
47523;SDS011;33253;42.144;25.884;2024-01-30T05:23:24;13.77;;;7.17;;
47523;SDS011;33253;42.144;25.884;2024-01-30T05:25:50;12.93;;;7.50;;
47523;SDS011;33253;42.144;25.884;2024-01-30T05:28:16;14.47;;;7.23;;
47523;SDS011;33253;42.144;25.884;2024-01-30T05:30:42;14.73;;;7.90;;
47523;SDS011;33253;42.144;25.884;2024-01-30T05:33:07;11.00;;;6.20;;
47523;SDS011;33253;42.144;25.884;2024-01-30T05:35:33;14.73;;;6.67;;
47523;SDS011;33253;42.144;25.884;2024-01-30T05:37:58;13.03;;;7.30;;
47523;SDS011;33253;42.144;25.884;2024-01-30T05:40:24;16.27;;;7.70;;
47523;SDS011;33253;42.144;25.884;2024-01-30T05:42:49;17.57;;;9.07;;
47523;SDS011;33253;42.144;25.884;2024-01-30T05:45:15;11.93;;;6.30;;
47523;SDS011;33253;42.144;25.884;2024-01-30T05:47:40;12.00;;;6.80;;
47523;SDS011;33253;42.144;25.884;2024-01-30T05:50:06;11.77;;;6.23;;
47523;SDS011;33253;42.144;25.884;2024-01-30T05:52:32;12.40;;;6.93;;
47523;SDS011;33253;42.144;25.884;2024-01-30T05:54:57;12.13;;;7.00;;
47523;SDS011;33253;42.144;25.884;2024-01-30T05:57:23;13.33;;;7.70;;
47523;SDS011;33253;42.144;25.884;2024-01-30T05:59:50;12.87;;;6.37;;
47523;SDS011;33253;42.144;25.884;2024-01-30T06:02:17;11.77;;;6.57;;
47523;SDS011;33253;42.144;25.884;2024-01-30T06:04:42;16.47;;;6.77;;
47523;SDS011;33253;42.144;25.884;2024-01-30T06:07:09;16.17;;;6.30;;
47523;SDS011;33253;42.144;25.884;2024-01-30T06:09:35;16.83;;;8.20;;
47523;SDS011;33253;42.144;25.884;2024-01-30T06:12:00;13.00;;;7.17;;
47523;SDS011;33253;42.144;25.884;2024-01-30T06:14:26;14.73;;;7.57;;
47523;SDS011;33253;42.144;25.884;2024-01-30T06:16:51;16.23;;;8.20;;
47523;SDS011;33253;42.144;25.884;2024-01-30T06:19:17;14.50;;;7.83;;
47523;SDS011;33253;42.144;25.884;2024-01-30T06:21:42;17.10;;;8.63;;
47523;SDS011;33253;42.144;25.884;2024-01-30T06:24:08;16.67;;;8.57;;
47523;SDS011;33253;42.144;25.884;2024-01-30T06:26:34;16.83;;;8.20;;
47523;SDS011;33253;42.144;25.884;2024-01-30T06:28:59;13.37;;;7.80;;
47523;SDS011;33253;42.144;25.884;2024-01-30T06:31:25;15.07;;;7.70;;
47523;SDS011;33253;42.144;25.884;2024-01-30T06:33:50;16.47;;;8.40;;
47523;SDS011;33253;42.144;25.884;2024-01-30T06:36:16;16.23;;;7.90;;
47523;SDS011;33253;42.144;25.884;2024-01-30T06:38:41;15.97;;;9.23;;
47523;SDS011;33253;42.144;25.884;2024-01-30T06:41:07;18.40;;;8.50;;
47523;SDS011;33253;42.144;25.884;2024-01-30T06:43:32;14.97;;;8.43;;
47523;SDS011;33253;42.144;25.884;2024-01-30T06:45:58;13.90;;;7.00;;
47523;SDS011;33253;42.144;25.884;2024-01-30T06:48:24;14.93;;;8.00;;
47523;SDS011;33253;42.144;25.884;2024-01-30T06:50:53;15.57;;;8.83;;
47523;SDS011;33253;42.144;25.884;2024-01-30T06:53:19;12.77;;;6.72;;
47523;SDS011;33253;42.144;25.884;2024-01-30T06:55:44;15.47;;;8.30;;
47523;SDS011;33253;42.144;25.884;2024-01-30T06:58:10;16.20;;;9.43;;
47523;SDS011;33253;42.144;25.884;2024-01-30T07:00:36;18.70;;;9.27;;
47523;SDS011;33253;42.144;25.884;2024-01-30T07:03:01;14.33;;;7.70;;
47523;SDS011;33253;42.144;25.884;2024-01-30T07:05:27;17.27;;;9.07;;
47523;SDS011;33253;42.144;25.884;2024-01-30T07:07:52;16.07;;;9.10;;
47523;SDS011;33253;42.144;25.884;2024-01-30T07:10:18;13.97;;;8.17;;
47523;SDS011;33253;42.144;25.884;2024-01-30T07:12:44;18.33;;;9.50;;
47523;SDS011;33253;42.144;25.884;2024-01-30T07:15:09;15.10;;;8.30;;
47523;SDS011;33253;42.144;25.884;2024-01-30T07:17:35;15.40;;;8.03;;
47523;SDS011;33253;42.144;25.884;2024-01-30T07:20:01;17.87;;;8.50;;
47523;SDS011;33253;42.144;25.884;2024-01-30T07:22:28;16.10;;;8.47;;
47523;SDS011;33253;42.144;25.884;2024-01-30T07:24:56;11.67;;;6.70;;
47523;SDS011;33253;42.144;25.884;2024-01-30T07:27:21;16.50;;;7.57;;
47523;SDS011;33253;42.144;25.884;2024-01-30T07:29:47;14.80;;;7.77;;
47523;SDS011;33253;42.144;25.884;2024-01-30T07:32:12;13.87;;;7.87;;
47523;SDS011;33253;42.144;25.884;2024-01-30T07:34:38;14.90;;;6.77;;
47523;SDS011;33253;42.144;25.884;2024-01-30T07:37:03;13.63;;;7.67;;
47523;SDS011;33253;42.144;25.884;2024-01-30T07:39:29;16.37;;;8.37;;
47523;SDS011;33253;42.144;25.884;2024-01-30T07:41:54;14.87;;;8.53;;
47523;SDS011;33253;42.144;25.884;2024-01-30T07:44:20;12.90;;;7.77;;
47523;SDS011;33253;42.144;25.884;2024-01-30T07:46:46;14.93;;;8.20;;
47523;SDS011;33253;42.144;25.884;2024-01-30T07:49:11;14.27;;;8.60;;
47523;SDS011;33253;42.144;25.884;2024-01-30T07:51:39;12.70;;;7.90;;
47523;SDS011;33253;42.144;25.884;2024-01-30T07:54:05;12.68;;;7.95;;
47523;SDS011;33253;42.144;25.884;2024-01-30T07:56:30;13.03;;;7.30;;
47523;SDS011;33253;42.144;25.884;2024-01-30T07:58:55;13.35;;;7.07;;
47523;SDS011;33253;42.144;25.884;2024-01-30T08:01:21;11.45;;;6.30;;
47523;SDS011;33253;42.144;25.884;2024-01-30T08:03:46;12.27;;;6.97;;
47523;SDS011;33253;42.144;25.884;2024-01-30T08:06:12;13.80;;;6.72;;
47523;SDS011;33253;42.144;25.884;2024-01-30T08:08:37;12.45;;;6.80;;
47523;SDS011;33253;42.144;25.884;2024-01-30T08:11:03;12.85;;;7.32;;
47523;SDS011;33253;42.144;25.884;2024-01-30T08:13:28;13.10;;;6.88;;
47523;SDS011;33253;42.144;25.884;2024-01-30T08:15:54;12.55;;;6.82;;
47523;SDS011;33253;42.144;25.884;2024-01-30T08:18:19;10.52;;;6.38;;
47523;SDS011;33253;42.144;25.884;2024-01-30T08:20:45;14.23;;;7.30;;
47523;SDS011;33253;42.144;25.884;2024-01-30T08:23:10;11.20;;;5.93;;
47523;SDS011;33253;42.144;25.884;2024-01-30T08:25:36;12.32;;;6.07;;
47523;SDS011;33253;42.144;25.884;2024-01-30T08:28:02;11.95;;;6.72;;
47523;SDS011;33253;42.144;25.884;2024-01-30T08:30:27;10.90;;;6.20;;
47523;SDS011;33253;42.144;25.884;2024-01-30T08:32:53;10.40;;;5.68;;
47523;SDS011;33253;42.144;25.884;2024-01-30T08:35:18;10.57;;;5.40;;
47523;SDS011;33253;42.144;25.884;2024-01-30T08:37:44;11.55;;;7.00;;
47523;SDS011;33253;42.144;25.884;2024-01-30T08:40:09;11.88;;;5.82;;
47523;SDS011;33253;42.144;25.884;2024-01-30T08:42:35;9.23;;;5.30;;
47523;SDS011;33253;42.144;25.884;2024-01-30T08:45:01;10.43;;;6.32;;
47523;SDS011;33253;42.144;25.884;2024-01-30T08:47:26;11.23;;;5.72;;
47523;SDS011;33253;42.144;25.884;2024-01-30T08:49:52;14.70;;;6.90;;
47523;SDS011;33253;42.144;25.884;2024-01-30T08:52:17;11.50;;;5.72;;
47523;SDS011;33253;42.144;25.884;2024-01-30T08:54:43;9.68;;;4.55;;
47523;SDS011;33253;42.144;25.884;2024-01-30T08:57:08;9.55;;;5.22;;
47523;SDS011;33253;42.144;25.884;2024-01-30T08:59:34;10.73;;;5.45;;
47523;SDS011;33253;42.144;25.884;2024-01-30T09:01:59;10.02;;;5.35;;
47523;SDS011;33253;42.144;25.884;2024-01-30T09:04:25;9.10;;;5.00;;
47523;SDS011;33253;42.144;25.884;2024-01-30T09:06:50;9.70;;;4.82;;
47523;SDS011;33253;42.144;25.884;2024-01-30T09:09:17;10.82;;;5.65;;
47523;SDS011;33253;42.144;25.884;2024-01-30T09:11:43;7.75;;;4.63;;
47523;SDS011;33253;42.144;25.884;2024-01-30T09:14:09;11.45;;;5.35;;
47523;SDS011;33253;42.144;25.884;2024-01-30T09:16:34;10.52;;;5.38;;
47523;SDS011;33253;42.144;25.884;2024-01-30T09:19:00;11.23;;;4.88;;
47523;SDS011;33253;42.144;25.884;2024-01-30T09:21:27;27.35;;;5.88;;
47523;SDS011;33253;42.144;25.884;2024-01-30T09:23:54;47.15;;;6.47;;
47523;SDS011;33253;42.144;25.884;2024-01-30T09:26:20;21.77;;;4.47;;
47523;SDS011;33253;42.144;25.884;2024-01-30T09:28:46;12.65;;;5.47;;
47523;SDS011;33253;42.144;25.884;2024-01-30T09:31:12;22.60;;;4.55;;
47523;SDS011;33253;42.144;25.884;2024-01-30T09:33:38;20.77;;;6.45;;
47523;SDS011;33253;42.144;25.884;2024-01-30T09:36:04;9.75;;;3.80;;
47523;SDS011;33253;42.144;25.884;2024-01-30T09:38:30;34.08;;;5.20;;
47523;SDS011;33253;42.144;25.884;2024-01-30T09:40:56;16.15;;;4.78;;
47523;SDS011;33253;42.144;25.884;2024-01-30T09:43:26;20.67;;;4.28;;
47523;SDS011;33253;42.144;25.884;2024-01-30T09:45:57;13.75;;;4.65;;
47523;SDS011;33253;42.144;25.884;2024-01-30T09:48:25;10.80;;;4.10;;
47523;SDS011;33253;42.144;25.884;2024-01-30T09:50:52;13.20;;;3.78;;
47523;SDS011;33253;42.144;25.884;2024-01-30T09:53:18;17.42;;;4.60;;
47523;SDS011;33253;42.144;25.884;2024-01-30T09:55:44;19.05;;;5.18;;
47523;SDS011;33253;42.144;25.884;2024-01-30T09:58:11;13.40;;;4.38;;
47523;SDS011;33253;42.144;25.884;2024-01-30T10:00:37;8.82;;;4.88;;
47523;SDS011;33253;42.144;25.884;2024-01-30T10:03:03;14.68;;;5.68;;
47523;SDS011;33253;42.144;25.884;2024-01-30T10:05:28;12.90;;;3.80;;
47523;SDS011;33253;42.144;25.884;2024-01-30T10:07:59;8.63;;;4.10;;
47523;SDS011;33253;42.144;25.884;2024-01-30T10:10:24;7.93;;;4.25;;
47523;SDS011;33253;42.144;25.884;2024-01-30T10:12:50;11.90;;;4.93;;
47523;SDS011;33253;42.144;25.884;2024-01-30T10:15:15;10.00;;;4.90;;
47523;SDS011;33253;42.144;25.884;2024-01-30T10:17:43;14.95;;;5.80;;
47523;SDS011;33253;42.144;25.884;2024-01-30T10:20:09;9.18;;;4.57;;
47523;SDS011;33253;42.144;25.884;2024-01-30T10:22:35;8.63;;;4.78;;
47523;SDS011;33253;42.144;25.884;2024-01-30T10:25:02;8.27;;;4.90;;
47523;SDS011;33253;42.144;25.884;2024-01-30T10:27:29;6.50;;;4.55;;
47523;SDS011;33253;42.144;25.884;2024-01-30T10:29:54;9.30;;;5.13;;
47523;SDS011;33253;42.144;25.884;2024-01-30T10:32:20;10.27;;;4.78;;
47523;SDS011;33253;42.144;25.884;2024-01-30T10:34:46;9.57;;;5.30;;
47523;SDS011;33253;42.144;25.884;2024-01-30T10:37:12;9.98;;;5.50;;
47523;SDS011;33253;42.144;25.884;2024-01-30T10:39:40;11.02;;;5.63;;
47523;SDS011;33253;42.144;25.884;2024-01-30T10:42:10;9.93;;;4.75;;
47523;SDS011;33253;42.144;25.884;2024-01-30T10:44:46;12.30;;;4.65;;
47523;SDS011;33253;42.144;25.884;2024-01-30T10:47:22;11.35;;;4.45;;
47523;SDS011;33253;42.144;25.884;2024-01-30T10:49:51;15.38;;;4.88;;
47523;SDS011;33253;42.144;25.884;2024-01-30T10:52:18;8.52;;;3.80;;
47523;SDS011;33253;42.144;25.884;2024-01-30T10:54:45;12.02;;;3.92;;
47523;SDS011;33253;42.144;25.884;2024-01-30T10:57:12;11.75;;;4.47;;
47523;SDS011;33253;42.144;25.884;2024-01-30T10:59:40;8.73;;;4.50;;
47523;SDS011;33253;42.144;25.884;2024-01-30T11:02:07;8.80;;;4.13;;
47523;SDS011;33253;42.144;25.884;2024-01-30T11:04:38;8.10;;;3.78;;
47523;SDS011;33253;42.144;25.884;2024-01-30T11:09:47;7.72;;;4.07;;
47523;SDS011;33253;42.144;25.884;2024-01-30T11:12:14;11.13;;;4.63;;
47523;SDS011;33253;42.144;25.884;2024-01-30T11:14:40;14.82;;;4.88;;
47523;SDS011;33253;42.144;25.884;2024-01-30T11:17:05;12.88;;;4.55;;
47523;SDS011;33253;42.144;25.884;2024-01-30T11:19:31;17.60;;;5.10;;
47523;SDS011;33253;42.144;25.884;2024-01-30T11:21:57;12.77;;;5.13;;
47523;SDS011;33253;42.144;25.884;2024-01-30T11:24:23;9.85;;;4.72;;
47523;SDS011;33253;42.144;25.884;2024-01-30T11:26:49;13.52;;;4.63;;
47523;SDS011;33253;42.144;25.884;2024-01-30T11:29:20;12.02;;;4.68;;
47523;SDS011;33253;42.144;25.884;2024-01-30T11:31:52;10.45;;;4.15;;
47523;SDS011;33253;42.144;25.884;2024-01-30T11:34:18;14.52;;;4.85;;
47523;SDS011;33253;42.144;25.884;2024-01-30T11:36:46;8.23;;;3.55;;
47523;SDS011;33253;42.144;25.884;2024-01-30T11:39:18;14.63;;;5.43;;
47523;SDS011;33253;42.144;25.884;2024-01-30T11:41:45;10.20;;;4.88;;
47523;SDS011;33253;42.144;25.884;2024-01-30T11:44:11;9.45;;;4.95;;
47523;SDS011;33253;42.144;25.884;2024-01-30T11:46:36;13.25;;;7.97;;
47523;SDS011;33253;42.144;25.884;2024-01-30T11:49:02;11.73;;;6.43;;
47523;SDS011;33253;42.144;25.884;2024-01-30T11:51:27;11.60;;;4.72;;
47523;SDS011;33253;42.144;25.884;2024-01-30T11:53:57;9.10;;;5.30;;
47523;SDS011;33253;42.144;25.884;2024-01-30T11:56:23;14.52;;;5.55;;
47523;SDS011;33253;42.144;25.884;2024-01-30T11:58:50;12.07;;;5.72;;
47523;SDS011;33253;42.144;25.884;2024-01-30T12:01:17;14.57;;;5.53;;
47523;SDS011;33253;42.144;25.884;2024-01-30T12:03:42;15.88;;;5.53;;
47523;SDS011;33253;42.144;25.884;2024-01-30T12:06:15;7.55;;;4.22;;
47523;SDS011;33253;42.144;25.884;2024-01-30T12:08:41;11.20;;;4.00;;
47523;SDS011;33253;42.144;25.884;2024-01-30T12:11:07;16.63;;;4.35;;
47523;SDS011;33253;42.144;25.884;2024-01-30T12:13:32;11.00;;;4.75;;
47523;SDS011;33253;42.144;25.884;2024-01-30T12:15:58;12.90;;;4.70;;
47523;SDS011;33253;42.144;25.884;2024-01-30T12:18:24;9.48;;;4.57;;
47523;SDS011;33253;42.144;25.884;2024-01-30T12:20:56;12.73;;;5.53;;
47523;SDS011;33253;42.144;25.884;2024-01-30T12:23:23;10.50;;;4.05;;
47523;SDS011;33253;42.144;25.884;2024-01-30T12:25:51;8.73;;;3.83;;
47523;SDS011;33253;42.144;25.884;2024-01-30T12:28:17;11.15;;;4.90;;
47523;SDS011;33253;42.144;25.884;2024-01-30T12:30:42;23.13;;;5.30;;
47523;SDS011;33253;42.144;25.884;2024-01-30T12:33:08;15.18;;;4.68;;
47523;SDS011;33253;42.144;25.884;2024-01-30T12:35:35;14.77;;;5.00;;
47523;SDS011;33253;42.144;25.884;2024-01-30T12:38:00;14.68;;;4.88;;
47523;SDS011;33253;42.144;25.884;2024-01-30T12:40:27;9.55;;;5.18;;
47523;SDS011;33253;42.144;25.884;2024-01-30T12:42:53;17.42;;;4.75;;
47523;SDS011;33253;42.144;25.884;2024-01-30T12:45:19;17.40;;;5.10;;
47523;SDS011;33253;42.144;25.884;2024-01-30T12:47:46;12.25;;;4.68;;
47523;SDS011;33253;42.144;25.884;2024-01-30T12:50:12;8.32;;;3.83;;
47523;SDS011;33253;42.144;25.884;2024-01-30T12:52:40;26.90;;;6.82;;
47523;SDS011;33253;42.144;25.884;2024-01-30T12:55:06;18.33;;;6.32;;
47523;SDS011;33253;42.144;25.884;2024-01-30T12:57:32;10.88;;;4.97;;
47523;SDS011;33253;42.144;25.884;2024-01-30T13:00:00;10.85;;;4.68;;
47523;SDS011;33253;42.144;25.884;2024-01-30T13:02:26;15.30;;;5.60;;
47523;SDS011;33253;42.144;25.884;2024-01-30T13:04:55;34.50;;;5.72;;
47523;SDS011;33253;42.144;25.884;2024-01-30T13:07:20;12.27;;;4.47;;
47523;SDS011;33253;42.144;25.884;2024-01-30T13:09:46;14.68;;;4.35;;
47523;SDS011;33253;42.144;25.884;2024-01-30T13:12:12;13.73;;;5.55;;
47523;SDS011;33253;42.144;25.884;2024-01-30T13:14:38;19.90;;;4.68;;
47523;SDS011;33253;42.144;25.884;2024-01-30T13:17:03;9.90;;;4.22;;
47523;SDS011;33253;42.144;25.884;2024-01-30T13:19:29;9.00;;;4.45;;
47523;SDS011;33253;42.144;25.884;2024-01-30T13:21:55;10.40;;;5.35;;
47523;SDS011;33253;42.144;25.884;2024-01-30T13:24:20;11.60;;;4.80;;
47523;SDS011;33253;42.144;25.884;2024-01-30T13:26:47;10.88;;;5.05;;
47523;SDS011;33253;42.144;25.884;2024-01-30T13:29:13;10.30;;;5.45;;
47523;SDS011;33253;42.144;25.884;2024-01-30T13:31:39;9.73;;;3.88;;
47523;SDS011;33253;42.144;25.884;2024-01-30T13:34:05;8.70;;;3.38;;
47523;SDS011;33253;42.144;25.884;2024-01-30T13:36:32;8.40;;;3.15;;
47523;SDS011;33253;42.144;25.884;2024-01-30T13:38:57;5.43;;;3.20;;
47523;SDS011;33253;42.144;25.884;2024-01-30T13:41:23;9.32;;;3.50;;
47523;SDS011;33253;42.144;25.884;2024-01-30T13:43:48;8.65;;;3.80;;
47523;SDS011;33253;42.144;25.884;2024-01-30T13:46:14;6.32;;;3.13;;
47523;SDS011;33253;42.144;25.884;2024-01-30T13:48:40;6.82;;;3.55;;
47523;SDS011;33253;42.144;25.884;2024-01-30T13:51:05;5.72;;;3.00;;
47523;SDS011;33253;42.144;25.884;2024-01-30T13:53:31;7.07;;;3.42;;
47523;SDS011;33253;42.144;25.884;2024-01-30T13:55:56;6.80;;;3.10;;
47523;SDS011;33253;42.144;25.884;2024-01-30T13:58:22;7.93;;;3.20;;
47523;SDS011;33253;42.144;25.884;2024-01-30T14:00:47;11.60;;;4.05;;
47523;SDS011;33253;42.144;25.884;2024-01-30T14:03:14;10.80;;;3.35;;
47523;SDS011;33253;42.144;25.884;2024-01-30T14:05:42;7.32;;;3.55;;
47523;SDS011;33253;42.144;25.884;2024-01-30T14:08:09;6.90;;;3.70;;
47523;SDS011;33253;42.144;25.884;2024-01-30T14:10:34;7.30;;;3.05;;
47523;SDS011;33253;42.144;25.884;2024-01-30T14:13:00;6.85;;;3.22;;
47523;SDS011;33253;42.144;25.884;2024-01-30T14:15:25;6.35;;;3.28;;
47523;SDS011;33253;42.144;25.884;2024-01-30T14:17:51;8.13;;;3.45;;
47523;SDS011;33253;42.144;25.884;2024-01-30T14:20:16;7.60;;;3.78;;
47523;SDS011;33253;42.144;25.884;2024-01-30T14:22:42;8.10;;;3.58;;